KFTW/FTW METAR and TAF weather

Enter ICAO airport designator
Station Type Date Time Source
KFTW METAR 2021/07/30 22:53 UTC NOAA

KFTW 302253Z 14007KT 10SM BKN065 35/20 A3000 RMK AO2 SLP147 T03500200


Station Type Date Time Source
KFTW Decoded METAR 2021/07/30 22:53 UTC NOAA

FORT WORTH MEACHAM INTERNATIONAL ., TX, United States (KFTW) 32-50N 097-22W 214M
Jul 30, 2021 - 06:53 PM EDT / 2021.07.30 2253 UTC
Wind: from the SE (140 degrees) at 8 MPH (7 KT):0
Visibility: 10 mile(s):0
Sky conditions: mostly cloudy
Temperature: 95.0 F (35.0 C)
Heat index: 99.5 F (37.5 C):1
Dew Point: 68.0 F (20.0 C)
Relative Humidity: 41%
Pressure (altimeter): 30 in. Hg (1015 hPa)
ob: KFTW 302253Z 14007KT 10SM BKN065 35/20 A3000 RMK AO2 SLP147 T03500200
cycle: 23

Station Type Date Time Source
KFTW TAF 2021/07/30 21:06 UTC NOAA

TAF
AMD KFTW 302104Z 3021/3118 13005KT P6SM FEW060 SCT080
FM310200 16007KT P6SM SCT250

Example: see airport list